Pagrindinis puslapis
METAR-TAF:

METAR-TAF

Oro uostai :

Cherbourg, Prancūzija

platuma: 49-39N, ilguma: 001-28W, Aukštis: 138 m

Dabartinis oras

Ataskaita buvo paskelbta 27 minutes, ne 07:00 UTC
Vėjas 4 kt iš Pietų
Temperatūra 17°C
Drėgmė 100%
Slėgis 1011 hPa
Matomumas: 8000 m
Apsiniaukę ne aukštis 300 ft

METAR: LFRC 200700Z AUTO 19004KT 8000 OVC003 17/17 Q1011 BECMG SCT020

Laikas: 09:27 (07:27 UTC)

Prognozė

Ataskaita buvo paskelbta 2 valandos ir 27 minutes, ne 05:00 UTC
Prognozė galioja nuo 20 metu 06 UTC su 20 metu 15 UTC
Vėjas 5 kt nuo kintamojo kryptimis
Matomumas: 0400 m
rūkas
Tapsmas
nuo 20 metu 06 UTC su 20 metu 07 UTC
Matomumas 10 km arba daugiau
Su prošvaistėmis ne aukštis 500 ft
Tapsmas
nuo 20 metu 07 UTC su 20 metu 09 UTC
Išsisklaidę debesys ne aukštis 2000 ft
Laikinai
nuo 20 metu 14 UTC su 20 metu 15 UTC
Matomumas: 3000 m
Su prošvaistėmis ne aukštis 3000 ft, Liūtiniai kamuoliniai debesys.
lietus,

TAF: LFRC 200500Z 2006/2015 VRB05KT 0400 FG VV/// BECMG 2006/2007 9999 NSW BKN005 BECMG 2007/2009 SCT020 TEMPO 2014/2015 3000 SHRA BKN030CB

Orai ataskaitas ir orų prognozės (METAR, TAF).

turimą stotys yra geltonos ir raudonos taškus žemėlapyje.

Perkelti pele per norėdami pamatyti stoties vardą.

Tada spustelėkite, norėdami matyti oro stebėjimo ir prognozės.

Norėdami pakeisti žemėlapį: spustelėkite ant žalios mygtukų su juodo kryžiaus žemyn,; žalią mygtuką su brūkšneliu, jei norite nutolinti; arba žalių rodyklių gretimoms žemėlapius.


METAR-TAF: